createdAt,value
2018-11-01T00:01:03.566Z,5.43
2018-11-01T00:03:32.747Z,5.97
2018-11-01T00:06:01.163Z,7.13
2018-11-01T00:08:29.457Z,5.00
2018-11-01T00:10:58.033Z,4.80
2018-11-01T00:13:26.343Z,5.37
2018-11-01T00:15:54.601Z,5.37
2018-11-01T00:18:22.869Z,5.77
2018-11-01T00:20:51.145Z,5.33
2018-11-01T00:23:25.743Z,5.27
2018-11-01T00:25:54.015Z,5.50
2018-11-01T00:28:22.342Z,6.70
2018-11-01T00:30:50.652Z,6.10
2018-11-01T00:33:18.930Z,6.60
2018-11-01T00:35:47.271Z,10.43
2018-11-01T00:38:15.528Z,6.57
2018-11-01T00:40:43.838Z,7.00
2018-11-01T00:43:12.087Z,6.43
2018-11-01T00:45:40.572Z,6.37
2018-11-01T00:48:09.341Z,7.97
2018-11-01T00:50:37.613Z,6.57
2018-11-01T00:53:05.870Z,6.90
2018-11-01T00:55:34.199Z,6.93
2018-11-01T00:58:02.468Z,6.90
2018-11-01T01:00:30.882Z,6.73
2018-11-01T01:03:00.955Z,7.83
2018-11-01T01:05:29.238Z,7.67
2018-11-01T01:07:57.614Z,6.80
2018-11-01T01:10:26.337Z,7.20
2018-11-01T01:12:54.609Z,6.80
2018-11-01T01:15:23.250Z,6.33
2018-11-01T01:17:51.503Z,7.43
2018-11-01T01:20:20.029Z,6.30
2018-11-01T01:22:48.352Z,6.70
2018-11-01T01:25:17.813Z,6.87
2018-11-01T01:27:46.138Z,6.20
2018-11-01T01:30:20.675Z,6.57
2018-11-01T01:32:49.366Z,6.20
2018-11-01T01:35:17.797Z,6.63
2018-11-01T01:37:46.378Z,6.83
2018-11-01T01:40:14.626Z,6.70
2018-11-01T01:42:48.211Z,7.00
2018-11-01T01:45:16.461Z,7.67
2018-11-01T01:47:44.723Z,5.90
2018-11-01T01:50:14.063Z,7.50
2018-11-01T01:52:43.087Z,7.53
2018-11-01T01:55:16.843Z,6.40
2018-11-01T01:57:45.118Z,9.47
2018-11-01T02:00:16.829Z,9.47
2018-11-01T02:02:46.319Z,6.33
2018-11-01T02:05:14.589Z,7.37
2018-11-01T02:07:42.873Z,7.87
2018-11-01T02:10:12.798Z,6.60
2018-11-01T02:12:41.286Z,6.30
2018-11-01T02:15:12.901Z,6.50
2018-11-01T02:17:41.599Z,5.73
2018-11-01T02:20:11.637Z,6.23
2018-11-01T02:22:40.227Z,6.93
2018-11-01T02:25:08.956Z,6.90
2018-11-01T02:27:42.674Z,7.03
2018-11-01T02:30:13.171Z,6.47
2018-11-01T02:32:42.336Z,6.10
2018-11-01T02:35:12.921Z,6.50
2018-11-01T02:37:41.429Z,6.60
2018-11-01T02:40:10.326Z,6.37
2018-11-01T02:42:38.858Z,6.23
2018-11-01T02:45:07.846Z,6.10
2018-11-01T02:47:36.195Z,6.30
2018-11-01T02:50:04.790Z,6.03
2018-11-01T02:52:33.065Z,5.70
2018-11-01T02:55:01.389Z,6.77
2018-11-01T02:57:29.693Z,6.43
2018-11-01T02:59:58.066Z,5.63
2018-11-01T03:02:26.265Z,7.23
2018-11-01T03:04:54.539Z,9.53
2018-11-01T03:07:22.820Z,6.30
2018-11-01T03:09:51.105Z,7.50
2018-11-01T03:12:19.379Z,7.03
2018-11-01T03:14:47.629Z,6.60
2018-11-01T03:17:15.929Z,5.60
2018-11-01T03:19:44.283Z,6.43
2018-11-01T03:22:12.543Z,6.17
2018-11-01T03:24:40.838Z,7.30
2018-11-01T03:27:09.150Z,6.70
2018-11-01T03:29:37.400Z,8.97
2018-11-01T03:32:05.722Z,6.47
2018-11-01T03:34:34.163Z,6.93
2018-11-01T03:37:02.434Z,6.30
2018-11-01T03:39:30.665Z,6.57
2018-11-01T03:41:58.909Z,6.77
2018-11-01T03:44:27.272Z,6.77
2018-11-01T03:46:55.515Z,6.43
2018-11-01T03:49:24.092Z,6.67
2018-11-01T03:51:52.654Z,7.03
2018-11-01T03:54:20.787Z,6.27
2018-11-01T03:56:49.098Z,6.87
2018-11-01T03:59:17.357Z,6.70
2018-11-01T04:01:45.656Z,5.60
2018-11-01T04:04:14.127Z,6.57
2018-11-01T04:06:42.400Z,8.20
2018-11-01T04:09:12.376Z,7.23
2018-11-01T04:11:40.894Z,6.07
2018-11-01T04:14:09.445Z,9.43
2018-11-01T04:16:37.807Z,6.87
2018-11-01T04:19:06.962Z,6.97
2018-11-01T04:21:35.491Z,7.50
2018-11-01T04:24:03.810Z,7.37
2018-11-01T04:26:32.093Z,7.27
2018-11-01T04:29:00.593Z,5.87
2018-11-01T04:31:28.973Z,9.10
2018-11-01T04:33:57.235Z,6.57
2018-11-01T04:36:25.912Z,6.47
2018-11-01T04:38:54.322Z,6.73
2018-11-01T04:41:22.611Z,6.37
2018-11-01T04:43:50.909Z,7.63
2018-11-01T04:48:52.772Z,7.77
2018-11-01T04:51:21.042Z,7.17
2018-11-01T04:53:49.306Z,7.17
2018-11-01T04:56:17.555Z,8.17
2018-11-01T04:58:45.803Z,7.13
2018-11-01T05:01:14.119Z,6.73
2018-11-01T05:03:42.379Z,7.13
2018-11-01T05:06:10.638Z,7.37
2018-11-01T05:08:38.899Z,6.90
2018-11-01T05:11:07.166Z,8.80
2018-11-01T05:13:39.326Z,7.07
2018-11-01T05:16:08.500Z,9.60
2018-11-01T05:18:36.898Z,8.23
2018-11-01T05:21:05.166Z,10.37
2018-11-01T05:23:33.443Z,9.83
2018-11-01T05:26:01.762Z,11.23
2018-11-01T05:28:29.991Z,7.70
2018-11-01T05:30:58.275Z,8.17
2018-11-01T05:33:26.499Z,7.90
2018-11-01T05:35:54.774Z,8.00
2018-11-01T05:38:23.037Z,7.77
2018-11-01T05:40:51.272Z,8.13
2018-11-01T05:43:24.759Z,8.77
2018-11-01T05:45:53.002Z,7.93
2018-11-01T05:48:21.288Z,8.40
2018-11-01T05:50:49.565Z,10.47
2018-11-01T05:53:17.870Z,6.87
2018-11-01T05:55:46.121Z,9.70
2018-11-01T05:58:14.501Z,7.00
2018-11-01T06:00:42.762Z,7.43
2018-11-01T06:03:11.045Z,11.00
2018-11-01T06:05:39.659Z,11.03
2018-11-01T06:08:10.358Z,12.43
2018-11-01T06:10:38.739Z,11.73
2018-11-01T06:13:06.977Z,9.53
2018-11-01T06:15:35.194Z,9.00
2018-11-01T06:18:03.510Z,8.97
2018-11-01T06:20:31.829Z,10.43
2018-11-01T06:23:00.035Z,12.00
2018-11-01T06:25:28.522Z,10.50
2018-11-01T06:27:56.839Z,14.53
2018-11-01T06:30:38.386Z,9.10
2018-11-01T06:33:06.649Z,7.37
2018-11-01T06:35:41.003Z,6.50
2018-11-01T06:38:09.322Z,7.50
2018-11-01T06:40:37.542Z,8.30
2018-11-01T06:43:05.910Z,11.43
2018-11-01T06:45:34.189Z,8.60
2018-11-01T06:48:02.446Z,8.00
2018-11-01T06:50:30.762Z,8.67
2018-11-01T06:52:59.041Z,6.90
2018-11-01T06:55:27.421Z,7.70
2018-11-01T06:57:55.689Z,7.37
2018-11-01T07:00:24.059Z,7.87
2018-11-01T07:02:52.392Z,6.90
2018-11-01T07:05:20.632Z,7.53
2018-11-01T07:07:48.951Z,8.83
2018-11-01T07:10:17.447Z,7.63
2018-11-01T07:12:45.880Z,7.67
2018-11-01T07:15:15.310Z,7.57
2018-11-01T07:17:43.821Z,8.03
2018-11-01T07:20:13.360Z,7.37
2018-11-01T07:22:42.479Z,7.97
2018-11-01T07:25:12.335Z,7.93
2018-11-01T07:27:40.738Z,7.47
2018-11-01T07:30:11.401Z,10.20
2018-11-01T07:32:39.778Z,8.73
2018-11-01T07:35:08.686Z,7.47
2018-11-01T07:37:37.810Z,7.23
2018-11-01T07:40:07.569Z,7.83
2018-11-01T07:42:35.953Z,6.93
2018-11-01T07:45:04.553Z,9.37
2018-11-01T07:47:32.864Z,8.30
2018-11-01T07:50:01.441Z,8.47
2018-11-01T07:52:30.370Z,11.23
2018-11-01T07:54:58.697Z,15.97
2018-11-01T07:57:27.190Z,13.73
2018-11-01T07:59:55.496Z,13.83
2018-11-01T08:02:23.969Z,11.87
2018-11-01T08:04:52.558Z,9.93
2018-11-01T08:07:21.853Z,9.80
2018-11-01T08:09:50.343Z,9.70
2018-11-01T08:12:18.722Z,9.73
2018-11-01T08:14:47.049Z,8.63
2018-11-01T08:17:15.389Z,7.63
2018-11-01T08:19:43.985Z,7.40
2018-11-01T08:22:12.191Z,7.30
2018-11-01T08:24:40.585Z,11.67
2018-11-01T08:27:09.090Z,8.57
2018-11-01T08:29:37.534Z,8.03
2018-11-01T08:32:05.957Z,7.80
2018-11-01T08:34:34.300Z,8.30
2018-11-01T08:37:02.551Z,6.97
2018-11-01T08:39:31.298Z,7.13
2018-11-01T08:41:59.664Z,6.60
2018-11-01T08:44:28.048Z,6.37
2018-11-01T08:46:56.536Z,6.83
2018-11-01T08:49:24.916Z,5.83
2018-11-01T08:51:55.709Z,6.57
2018-11-01T08:54:24.511Z,6.13
2018-11-01T09:02:38.041Z,5.60
2018-11-01T09:05:07.095Z,5.80
2018-11-01T09:07:35.728Z,7.73
2018-11-01T09:10:06.419Z,8.20
2018-11-01T09:12:37.263Z,5.23
2018-11-01T09:15:14.854Z,5.60
2018-11-01T09:17:43.245Z,5.63
2018-11-01T09:20:12.128Z,6.53
2018-11-01T09:22:44.533Z,5.60
2018-11-01T09:25:12.983Z,6.50
2018-11-01T09:27:41.466Z,7.57
2018-11-01T09:30:14.610Z,6.23
2018-11-01T09:32:44.041Z,6.77
2018-11-01T09:35:12.985Z,6.27
2018-11-01T09:37:44.208Z,6.97
2018-11-01T09:40:13.946Z,6.33
2018-11-01T09:42:42.777Z,7.30
2018-11-01T09:45:22.421Z,7.47
2018-11-01T09:47:52.909Z,6.53
2018-11-01T09:50:22.538Z,6.57
2018-11-01T09:52:50.796Z,6.30
2018-11-01T09:55:20.017Z,6.83
2018-11-01T09:57:51.352Z,5.70
2018-11-01T10:00:22.162Z,6.20
2018-11-01T10:02:50.365Z,7.90
2018-11-01T10:05:19.262Z,6.87
2018-11-01T10:07:50.117Z,6.93
2018-11-01T10:10:18.453Z,6.77
2018-11-01T10:12:46.977Z,8.57
2018-11-01T10:15:16.675Z,7.27
2018-11-01T10:17:45.412Z,7.03
2018-11-01T10:20:17.345Z,7.40
2018-11-01T10:22:46.205Z,7.63
2018-11-01T10:25:15.707Z,7.40
2018-11-01T10:27:44.387Z,7.20
2018-11-01T10:30:17.415Z,7.13
2018-11-01T10:32:48.572Z,7.67
2018-11-01T10:35:18.880Z,18.90
2018-11-01T10:37:49.380Z,9.73
2018-11-01T10:40:19.390Z,14.93
2018-11-01T10:42:48.745Z,15.00
2018-11-01T10:45:17.205Z,9.87
2018-11-01T10:47:48.105Z,8.20
2018-11-01T10:50:17.689Z,8.37
2018-11-01T10:52:46.274Z,16.87
2018-11-01T10:55:15.386Z,13.13
2018-11-01T10:57:43.846Z,12.13
2018-11-01T11:00:18.029Z,12.27
2018-11-01T11:02:48.932Z,10.50
2018-11-01T11:05:18.278Z,9.93
2018-11-01T11:07:46.889Z,8.73
2018-11-01T11:10:18.311Z,9.30
2018-11-01T11:12:46.837Z,9.43
2018-11-01T11:15:15.137Z,10.73
2018-11-01T11:17:43.848Z,11.77
2018-11-01T11:20:12.527Z,10.93
2018-11-01T11:22:40.897Z,11.30
2018-11-01T11:25:11.462Z,9.87
2018-11-01T11:27:43.163Z,11.17
2018-11-01T11:30:12.735Z,9.77
2018-11-01T11:32:41.477Z,13.50
2018-11-01T11:35:11.867Z,10.87
2018-11-01T11:37:40.329Z,10.93
2018-11-01T11:40:09.945Z,9.67
2018-11-01T11:42:39.796Z,12.13
2018-11-01T11:45:10.921Z,9.87
2018-11-01T11:47:39.505Z,10.63
2018-11-01T11:50:11.576Z,9.53
2018-11-01T11:52:40.407Z,12.70
2018-11-01T11:55:09.565Z,9.73
2018-11-01T11:57:38.227Z,8.20
2018-11-01T12:00:10.919Z,9.70
2018-11-01T12:02:40.836Z,9.97
2018-11-01T12:05:10.384Z,8.27
2018-11-01T12:07:40.560Z,8.57
2018-11-01T12:10:12.520Z,10.50
2018-11-01T12:12:42.325Z,8.80
2018-11-01T12:15:11.037Z,10.40
2018-11-01T12:17:40.304Z,9.27
2018-11-01T12:20:13.116Z,17.53
2018-11-01T12:22:41.650Z,19.77
2018-11-01T12:25:10.593Z,18.77
2018-11-01T12:27:40.251Z,11.80
2018-11-01T12:30:10.442Z,11.13
2018-11-01T12:32:38.949Z,9.80
2018-11-01T12:35:07.895Z,12.53
2018-11-01T12:37:38.385Z,9.97
2018-11-01T12:40:09.086Z,11.37
2018-11-01T12:42:37.409Z,10.10
2018-11-01T12:45:06.694Z,16.07
2018-11-01T12:47:34.937Z,18.37
2018-11-01T12:50:03.434Z,13.57
2018-11-01T12:52:36.904Z,12.17
2018-11-01T12:55:09.546Z,14.50
2018-11-01T12:57:38.000Z,15.73
2018-11-01T13:00:07.457Z,14.60
2018-11-01T13:02:36.059Z,16.47
2018-11-01T13:05:07.921Z,14.97
2018-11-01T13:07:36.166Z,15.17
2018-11-01T13:10:04.726Z,14.97
2018-11-01T13:12:33.085Z,14.77
2018-11-01T13:15:01.737Z,13.30
2018-11-01T13:17:30.338Z,14.63
2018-11-01T13:19:58.748Z,12.83
2018-11-01T13:22:26.992Z,12.70
2018-11-01T13:25:03.946Z,13.23
2018-11-01T13:27:32.417Z,13.73
2018-11-01T13:30:01.673Z,13.40
2018-11-01T13:32:29.992Z,14.27
2018-11-01T13:35:00.425Z,17.07
2018-11-01T13:37:28.762Z,16.53
2018-11-01T13:39:57.159Z,14.87
2018-11-01T13:42:39.981Z,16.83
2018-11-01T13:45:11.432Z,17.00
2018-11-01T13:47:40.002Z,16.90
2018-11-01T13:50:09.269Z,17.07
2018-11-01T13:52:41.789Z,19.27
2018-11-01T13:55:10.896Z,19.20
2018-11-01T13:57:39.233Z,21.33
2018-11-01T14:00:13.589Z,22.23
2018-11-01T14:02:44.608Z,22.47
2018-11-01T14:05:14.345Z,20.70
2018-11-01T14:07:46.614Z,21.40
2018-11-01T14:10:18.892Z,21.20
2018-11-01T14:12:48.408Z,20.60
2018-11-01T14:15:19.761Z,22.47
2018-11-01T14:17:47.649Z,22.33
2018-11-01T14:20:20.443Z,24.97
2018-11-01T14:22:51.031Z,19.93
2018-11-01T14:25:19.389Z,20.17
2018-11-01T14:27:48.330Z,20.43
2018-11-01T14:30:17.026Z,22.53
2018-11-01T14:32:45.369Z,20.83
2018-11-01T14:35:13.633Z,20.63
2018-11-01T14:37:41.998Z,18.33
2018-11-01T14:40:11.524Z,19.47
2018-11-01T14:42:40.048Z,21.33
2018-11-01T14:45:15.552Z,22.97
2018-11-01T14:47:43.969Z,24.70
2018-11-01T14:50:16.189Z,21.80
2018-11-01T14:52:47.120Z,20.27
2018-11-01T14:55:16.144Z,24.80
2018-11-01T14:57:45.588Z,26.67
2018-11-01T15:00:14.111Z,20.63
2018-11-01T15:02:43.458Z,20.70
2018-11-01T15:05:11.652Z,22.27
2018-11-01T15:07:39.865Z,25.37
2018-11-01T15:10:09.966Z,25.47
2018-11-01T15:12:38.177Z,30.40
2018-11-01T15:15:07.380Z,26.90
2018-11-01T15:17:35.701Z,32.23
2018-11-01T15:20:04.118Z,31.17
2018-11-01T15:22:32.297Z,27.23
2018-11-01T15:25:00.523Z,24.90
2018-11-01T15:27:29.609Z,27.60
2018-11-01T15:29:58.241Z,26.47
2018-11-01T15:32:26.442Z,28.03
2018-11-01T15:34:54.710Z,23.77
2018-11-01T15:37:23.010Z,26.17
2018-11-01T15:39:53.093Z,21.67
2018-11-01T15:42:21.976Z,21.00
2018-11-01T15:44:50.173Z,20.03
2018-11-01T15:47:19.568Z,16.43
2018-11-01T15:49:48.181Z,20.43
2018-11-01T15:52:16.410Z,21.60
2018-11-01T15:54:44.629Z,20.13
2018-11-01T15:57:13.325Z,15.10
2018-11-01T15:59:42.078Z,17.00
2018-11-01T16:02:10.376Z,14.43
2018-11-01T16:04:38.570Z,20.73
2018-11-01T16:07:07.501Z,21.33
2018-11-01T16:09:35.738Z,17.60
2018-11-01T16:12:03.945Z,18.43
2018-11-01T16:14:32.161Z,23.20
2018-11-01T16:17:00.636Z,14.97
2018-11-01T16:19:28.989Z,16.53
2018-11-01T16:21:57.214Z,16.90
2018-11-01T16:24:25.429Z,14.97
2018-11-01T16:26:54.058Z,16.07
2018-11-01T16:29:22.617Z,19.50
2018-11-01T16:31:50.877Z,14.23
2018-11-01T16:34:19.078Z,15.47
2018-11-01T16:36:47.411Z,15.43
2018-11-01T16:39:15.929Z,16.60
2018-11-01T16:41:44.181Z,19.50
2018-11-01T16:44:12.427Z,21.27
2018-11-01T16:46:40.653Z,24.77
2018-11-01T16:49:10.064Z,27.03
2018-11-01T16:51:38.373Z,26.73
2018-11-01T16:54:06.644Z,23.67
2018-11-01T16:56:34.907Z,30.00
2018-11-01T16:59:03.345Z,23.07
2018-11-01T17:01:31.701Z,23.83
2018-11-01T17:04:00.366Z,34.45
2018-11-01T17:06:28.761Z,27.47
2018-11-01T17:08:57.205Z,30.80
2018-11-01T17:11:25.685Z,29.27
2018-11-01T17:13:53.937Z,30.57
2018-11-01T17:16:22.300Z,30.93
2018-11-01T17:18:50.863Z,30.03
2018-11-01T17:21:19.053Z,33.43
2018-11-01T17:23:47.532Z,30.70
2018-11-01T17:26:15.960Z,27.87
2018-11-01T17:28:45.396Z,28.03
2018-11-01T17:31:14.397Z,32.37
2018-11-01T17:33:42.637Z,28.33
2018-11-01T17:36:11.009Z,31.27
2018-11-01T17:38:39.704Z,28.07
2018-11-01T17:41:07.931Z,26.57
2018-11-01T17:43:36.216Z,35.83
2018-11-01T17:46:04.570Z,35.20
2018-11-01T17:48:32.693Z,30.47
2018-11-01T17:51:00.934Z,28.93
2018-11-01T17:53:29.169Z,48.00
2018-11-01T17:55:57.459Z,33.73
2018-11-01T17:58:25.709Z,32.47
2018-11-01T18:00:53.902Z,42.17
2018-11-01T18:03:22.106Z,32.83
2018-11-01T18:05:50.323Z,32.03
2018-11-01T18:08:20.273Z,26.10
2018-11-01T18:10:48.749Z,27.67
2018-11-01T18:13:21.113Z,30.23
2018-11-01T18:15:50.010Z,26.23
2018-11-01T18:18:18.271Z,31.07
2018-11-01T18:20:46.655Z,28.97
2018-11-01T18:23:14.990Z,31.13
2018-11-01T18:25:50.131Z,31.73
2018-11-01T18:28:19.201Z,29.30
2018-11-01T18:30:47.489Z,35.63
2018-11-01T18:33:16.156Z,29.27
2018-11-01T18:35:44.696Z,31.70
2018-11-01T18:38:12.948Z,32.37
2018-11-01T18:40:41.195Z,40.60
2018-11-01T18:43:09.402Z,38.10
2018-11-01T18:45:37.634Z,40.90
2018-11-01T18:48:06.028Z,49.00
2018-11-01T18:50:34.280Z,36.97
2018-11-01T18:53:02.520Z,33.10
2018-11-01T18:55:30.761Z,35.27
2018-11-01T18:57:58.978Z,33.53
2018-11-01T19:00:27.189Z,36.10
2018-11-01T19:02:56.510Z,35.97
2018-11-01T19:05:24.712Z,31.13
2018-11-01T19:07:52.900Z,29.20
2018-11-01T19:10:21.161Z,34.93
2018-11-01T19:12:54.666Z,30.87
2018-11-01T19:15:22.933Z,38.08
2018-11-01T19:17:51.128Z,30.80
2018-11-01T19:20:19.389Z,32.97
2018-11-01T19:22:47.788Z,36.70
2018-11-01T19:25:16.067Z,44.50
2018-11-01T19:27:44.305Z,36.63
2018-11-01T19:30:13.613Z,33.70
2018-11-01T19:32:42.270Z,32.33
2018-11-01T19:35:12.433Z,28.00
2018-11-01T19:37:40.851Z,39.40
2018-11-01T19:40:12.468Z,28.43
2018-11-01T19:42:40.629Z,28.03
2018-11-01T19:45:08.982Z,23.90
2018-11-01T19:47:37.397Z,22.37
2018-11-01T19:50:06.605Z,24.87
2018-11-01T19:52:34.807Z,26.97
2018-11-01T19:55:03.002Z,29.23
2018-11-01T19:57:31.450Z,29.83
2018-11-01T20:00:00.076Z,28.70
2018-11-01T20:02:28.302Z,26.10
2018-11-01T20:04:56.463Z,35.57
2018-11-01T20:07:25.134Z,29.90
2018-11-01T20:09:53.338Z,31.53
2018-11-01T20:12:21.562Z,32.27
2018-11-01T20:14:49.893Z,23.23
2018-11-01T20:17:18.634Z,19.70
2018-11-01T20:19:47.138Z,22.63
2018-11-01T20:22:15.349Z,15.90
2018-11-01T20:24:44.499Z,15.40
2018-11-01T20:27:13.053Z,16.17
2018-11-01T20:29:41.918Z,13.67
2018-11-01T20:32:10.360Z,12.97
2018-11-01T20:34:38.605Z,12.43
2018-11-01T20:37:08.113Z,12.77
2018-11-01T20:39:40.779Z,12.93
2018-11-01T20:42:08.962Z,9.93
2018-11-01T20:44:38.124Z,10.80
2018-11-01T20:47:07.081Z,11.33
2018-11-01T20:49:35.336Z,10.83
2018-11-01T20:52:03.589Z,10.20
2018-11-01T20:54:32.718Z,11.47
2018-11-01T20:57:01.139Z,12.07
2018-11-01T20:59:29.398Z,10.70
2018-11-01T21:01:57.667Z,11.90
2018-11-01T21:04:28.246Z,10.27
2018-11-01T21:06:56.537Z,10.47
2018-11-01T21:09:24.838Z,13.23
2018-11-01T21:11:53.335Z,9.87
2018-11-01T21:14:22.033Z,11.27
2018-11-01T21:16:50.495Z,12.33
2018-11-01T21:19:18.761Z,11.17
2018-11-01T21:21:47.066Z,14.07
2018-11-01T21:24:17.434Z,13.27
2018-11-01T21:26:45.828Z,11.40
2018-11-01T21:29:14.218Z,12.57
2018-11-01T21:31:42.846Z,10.03
2018-11-01T21:34:11.852Z,10.63
2018-11-01T21:36:41.099Z,14.43
2018-11-01T21:39:09.409Z,12.73
2018-11-01T21:41:38.771Z,13.07
2018-11-01T21:44:07.509Z,14.80
2018-11-01T21:46:35.849Z,14.53
2018-11-01T21:49:04.513Z,12.60
2018-11-01T21:51:33.089Z,14.23
2018-11-01T21:54:01.561Z,13.37
2018-11-01T21:56:29.920Z,12.93
2018-11-01T21:58:58.210Z,12.20
2018-11-01T22:01:26.856Z,13.27
2018-11-01T22:03:55.785Z,15.70
2018-11-01T22:06:24.763Z,12.83
2018-11-01T22:08:53.115Z,15.33
2018-11-01T22:11:22.172Z,14.03
2018-11-01T22:13:50.497Z,13.60
2018-11-01T22:16:18.879Z,14.50
2018-11-01T22:18:47.512Z,15.53
2018-11-01T22:21:16.418Z,15.43
2018-11-01T22:23:49.553Z,16.97
2018-11-01T22:26:17.994Z,14.67
2018-11-01T22:28:47.988Z,14.63
2018-11-01T22:31:16.269Z,14.53
2018-11-01T22:33:44.545Z,15.13
2018-11-01T22:36:13.052Z,15.33
2018-11-01T22:38:41.353Z,14.90
2018-11-01T22:41:09.746Z,13.63
2018-11-01T22:43:38.124Z,14.50
2018-11-01T22:46:06.510Z,12.93
2018-11-01T22:48:35.051Z,13.30
2018-11-01T22:51:03.299Z,17.50
2018-11-01T22:53:31.651Z,12.77
2018-11-01T22:55:59.890Z,12.87
2018-11-01T22:58:31.838Z,12.73
2018-11-01T23:01:00.030Z,13.13
2018-11-01T23:03:28.270Z,12.90
2018-11-01T23:05:56.537Z,13.43
2018-11-01T23:08:25.636Z,13.30
2018-11-01T23:10:53.841Z,15.23
2018-11-01T23:13:22.060Z,15.57
2018-11-01T23:15:54.576Z,13.63
2018-11-01T23:18:22.869Z,14.27
2018-11-01T23:20:51.220Z,12.60
2018-11-01T23:23:24.533Z,12.67
2018-11-01T23:25:52.778Z,13.03
2018-11-01T23:28:22.804Z,14.17
2018-11-01T23:30:56.268Z,13.83
2018-11-01T23:33:24.743Z,12.67
2018-11-01T23:35:53.737Z,11.67
2018-11-01T23:38:27.629Z,11.83
2018-11-01T23:41:02.127Z,12.57
2018-11-01T23:43:37.689Z,11.23
2018-11-01T23:46:16.177Z,10.80
2018-11-01T23:48:52.506Z,9.93
2018-11-01T23:51:24.308Z,10.83
2018-11-01T23:53:54.998Z,10.50
2018-11-01T23:56:23.552Z,12.50
2018-11-01T23:58:53.439Z,16.67
